createdAt,value
2023-05-17T00:01:14.467Z,15.76
2023-05-17T00:03:42.559Z,15.75
2023-05-17T00:06:10.837Z,15.72
2023-05-17T00:08:38.900Z,15.71
2023-05-17T00:11:07.130Z,15.70
2023-05-17T00:13:35.335Z,15.69
2023-05-17T00:16:03.465Z,15.71
2023-05-17T00:18:31.755Z,15.73
2023-05-17T00:20:59.907Z,15.76
2023-05-17T00:23:28.032Z,15.81
2023-05-17T00:25:56.137Z,15.83
2023-05-17T00:28:24.261Z,15.84
2023-05-17T00:30:52.488Z,15.84
2023-05-17T00:33:20.704Z,15.82
2023-05-17T00:35:49.021Z,15.82
2023-05-17T00:38:17.149Z,15.82
2023-05-17T00:40:45.262Z,15.84
2023-05-17T00:43:13.481Z,15.87
2023-05-17T00:45:41.602Z,15.90
2023-05-17T00:48:09.993Z,15.93
2023-05-17T00:50:38.349Z,15.94
2023-05-17T00:53:06.699Z,15.95
2023-05-17T00:55:35.184Z,15.94
2023-05-17T00:58:03.514Z,15.94
2023-05-17T01:00:33.305Z,15.95
2023-05-17T01:03:01.569Z,15.98
2023-05-17T01:05:31.071Z,16.01
2023-05-17T01:07:59.194Z,16.04
2023-05-17T01:10:44.577Z,16.06
2023-05-17T01:13:33.574Z,16.06
2023-05-17T01:16:27.376Z,16.06
2023-05-17T01:19:32.308Z,16.10
2023-05-17T01:22:26.546Z,16.17
2023-05-17T01:25:14.024Z,16.21
2023-05-17T01:27:45.363Z,16.25
2023-05-17T01:30:14.488Z,16.24
2023-05-17T01:32:45.817Z,16.21
2023-05-17T01:35:15.382Z,16.17
2023-05-17T01:37:43.580Z,16.17
2023-05-17T01:40:12.583Z,16.20
2023-05-17T01:42:43.312Z,16.22
2023-05-17T01:45:49.265Z,16.23
2023-05-17T01:48:20.215Z,16.22
2023-05-17T01:50:54.585Z,16.23
2023-05-17T01:53:53.004Z,16.22
2023-05-17T01:56:33.797Z,16.22
2023-05-17T01:59:06.864Z,16.22
2023-05-17T02:01:36.487Z,16.24
2023-05-17T02:04:05.173Z,16.28
2023-05-17T02:06:33.433Z,16.30
2023-05-17T02:09:03.357Z,16.29
2023-05-17T02:11:32.581Z,16.27
2023-05-17T02:14:00.904Z,16.25
2023-05-17T02:16:29.126Z,16.21
2023-05-17T02:18:57.402Z,16.18
2023-05-17T02:21:25.505Z,16.18
2023-05-17T02:23:53.782Z,16.17
2023-05-17T02:26:21.905Z,16.17
2023-05-17T02:28:50.026Z,16.21
2023-05-17T02:31:18.146Z,16.24
2023-05-17T02:33:46.628Z,16.27
2023-05-17T02:36:14.787Z,16.25
2023-05-17T02:38:42.913Z,16.16
2023-05-17T02:41:11.023Z,16.10
2023-05-17T02:43:39.150Z,16.05
2023-05-17T02:46:07.471Z,16.03
2023-05-17T02:48:35.987Z,15.97
2023-05-17T02:51:05.312Z,15.92
2023-05-17T02:53:33.347Z,15.89
2023-05-17T02:56:01.609Z,15.83
2023-05-17T02:58:30.069Z,15.75
2023-05-17T03:00:58.400Z,15.70
2023-05-17T03:03:26.763Z,15.71
2023-05-17T03:05:55.136Z,15.73
2023-05-17T03:08:23.855Z,15.74
2023-05-17T03:10:52.423Z,15.71
2023-05-17T03:13:20.806Z,15.66
2023-05-17T03:15:49.017Z,15.61
2023-05-17T03:18:17.590Z,15.62
2023-05-17T03:20:46.058Z,15.62
2023-05-17T03:23:14.279Z,15.64
2023-05-17T03:25:53.038Z,15.71
2023-05-17T03:28:21.558Z,15.77
2023-05-17T03:30:50.038Z,15.75
2023-05-17T03:33:19.732Z,15.73
2023-05-17T03:35:48.353Z,15.71
2023-05-17T03:38:17.158Z,15.68
2023-05-17T03:40:45.677Z,15.69
2023-05-17T03:43:13.798Z,15.72
2023-05-17T03:45:42.113Z,15.75
2023-05-17T03:48:10.333Z,15.75
2023-05-17T03:50:41.272Z,15.73
2023-05-17T03:53:10.088Z,15.71
2023-05-17T03:55:38.705Z,15.70
2023-05-17T03:58:07.339Z,15.67
2023-05-17T04:00:36.656Z,15.68
2023-05-17T04:03:05.236Z,15.70
2023-05-17T04:05:33.393Z,15.75
2023-05-17T04:08:01.720Z,15.79
2023-05-17T04:10:29.938Z,15.80
2023-05-17T04:12:58.266Z,15.82
2023-05-17T04:15:26.634Z,15.84
2023-05-17T04:17:55.467Z,15.85
2023-05-17T04:20:23.622Z,15.87
2023-05-17T04:22:51.852Z,15.93
2023-05-17T04:25:20.570Z,16.00
2023-05-17T04:27:48.793Z,16.07
2023-05-17T04:30:17.303Z,16.15
2023-05-17T04:32:46.230Z,16.21
2023-05-17T04:35:14.755Z,16.26
2023-05-17T04:37:44.785Z,16.31
2023-05-17T04:40:19.856Z,16.35
2023-05-17T04:42:48.937Z,16.40
2023-05-17T04:45:18.071Z,16.46
2023-05-17T04:47:46.469Z,16.54
2023-05-17T04:50:15.811Z,16.60
2023-05-17T04:52:44.232Z,16.66
2023-05-17T04:55:13.159Z,16.71
2023-05-17T04:57:41.376Z,16.78
2023-05-17T05:00:11.921Z,16.82
2023-05-17T05:02:42.663Z,16.84
2023-05-17T05:05:12.278Z,16.89
2023-05-17T05:07:41.089Z,16.95
2023-05-17T05:10:09.918Z,17.05
2023-05-17T05:12:38.231Z,17.15
2023-05-17T05:15:07.145Z,17.20
2023-05-17T05:17:35.659Z,17.24
2023-05-17T05:20:04.536Z,17.29
2023-05-17T05:22:32.907Z,17.34
2023-05-17T05:25:01.136Z,17.39
2023-05-17T05:27:29.768Z,17.49
2023-05-17T05:29:57.873Z,17.63
2023-05-17T05:32:26.049Z,17.76
2023-05-17T05:34:54.914Z,17.89
2023-05-17T05:37:24.236Z,17.99
2023-05-17T05:39:52.488Z,18.10
2023-05-17T05:42:21.085Z,18.19
2023-05-17T05:44:49.197Z,18.27
2023-05-17T05:47:18.622Z,18.33
2023-05-17T05:49:46.848Z,18.39
2023-05-17T05:52:15.366Z,18.46
2023-05-17T05:54:45.038Z,18.51
2023-05-17T05:57:13.412Z,18.55
2023-05-17T05:59:41.432Z,18.59
2023-05-17T06:02:09.972Z,18.61
2023-05-17T06:04:45.362Z,18.64
2023-05-17T06:07:15.026Z,18.63
2023-05-17T06:09:43.666Z,18.63
2023-05-17T06:12:14.793Z,18.65
2023-05-17T06:14:43.007Z,18.66
2023-05-17T06:17:11.117Z,18.64
2023-05-17T06:19:39.457Z,18.67
2023-05-17T06:22:07.863Z,18.68
2023-05-17T06:24:36.287Z,18.73
2023-05-17T06:27:04.705Z,18.76
2023-05-17T06:29:33.127Z,18.74
2023-05-17T06:32:01.151Z,18.75
2023-05-17T06:34:29.360Z,18.76
2023-05-17T06:36:57.490Z,18.84
2023-05-17T06:39:25.704Z,18.91
2023-05-17T06:41:53.823Z,18.99
2023-05-17T06:44:21.943Z,19.08
2023-05-17T06:46:50.060Z,19.18
2023-05-17T06:49:18.182Z,19.26
2023-05-17T06:51:46.798Z,19.34
2023-05-17T06:54:15.122Z,19.41
2023-05-17T06:56:43.223Z,19.50
2023-05-17T06:59:11.664Z,19.57
2023-05-17T07:01:40.194Z,19.63
2023-05-17T07:04:08.552Z,19.67
2023-05-17T07:06:36.926Z,19.71
2023-05-17T07:09:05.053Z,19.73
2023-05-17T07:11:33.368Z,19.78
2023-05-17T07:14:01.399Z,19.83
2023-05-17T07:16:29.607Z,19.88
2023-05-17T07:18:57.794Z,19.93
2023-05-17T07:21:26.152Z,20.01
2023-05-17T07:23:54.369Z,20.08
2023-05-17T07:26:24.899Z,20.11
2023-05-17T07:28:53.223Z,20.22
2023-05-17T07:31:21.382Z,20.31
2023-05-17T07:33:49.615Z,20.39
2023-05-17T07:36:17.705Z,20.39
2023-05-17T07:38:45.801Z,20.44
2023-05-17T07:41:17.195Z,20.50
2023-05-17T07:43:45.551Z,20.56
2023-05-17T07:46:13.572Z,20.64
2023-05-17T07:48:41.886Z,20.63
2023-05-17T07:51:10.111Z,20.72
2023-05-17T07:53:38.136Z,20.81
2023-05-17T07:56:06.458Z,20.95
2023-05-17T07:58:34.474Z,21.08
2023-05-17T08:01:02.645Z,21.20
2023-05-17T08:03:32.822Z,21.28
2023-05-17T08:06:00.993Z,21.32
2023-05-17T08:08:29.063Z,21.36
2023-05-17T08:10:57.490Z,21.41
2023-05-17T08:13:25.706Z,21.49
2023-05-17T08:15:58.510Z,21.58
2023-05-17T08:18:33.210Z,21.63
2023-05-17T08:21:01.503Z,21.66
2023-05-17T08:23:29.622Z,21.65
2023-05-17T08:25:58.139Z,21.68
2023-05-17T08:28:26.373Z,21.68
2023-05-17T08:30:54.393Z,21.67
2023-05-17T08:33:23.708Z,21.64
2023-05-17T08:35:55.661Z,21.65
2023-05-17T08:38:23.870Z,21.58
2023-05-17T08:40:55.708Z,21.57
2023-05-17T08:43:27.356Z,21.53
2023-05-17T08:45:59.347Z,21.54
2023-05-17T08:48:27.883Z,21.58
2023-05-17T08:50:58.316Z,21.60
2023-05-17T08:53:27.398Z,21.63
2023-05-17T08:56:00.756Z,21.62
2023-05-17T08:58:41.136Z,21.62
2023-05-17T09:01:22.662Z,21.60
2023-05-17T09:03:52.666Z,21.64
2023-05-17T09:06:22.481Z,21.68
2023-05-17T09:08:53.009Z,21.62
2023-05-17T09:11:35.251Z,21.68
2023-05-17T09:14:06.009Z,21.75
2023-05-17T09:16:35.901Z,21.73
2023-05-17T09:19:06.473Z,21.76
2023-05-17T09:21:35.753Z,21.78
2023-05-17T09:24:07.928Z,21.81
2023-05-17T09:26:45.682Z,21.78
2023-05-17T09:29:16.076Z,21.77
2023-05-17T09:31:45.105Z,21.76
2023-05-17T09:34:18.337Z,21.72
2023-05-17T09:36:47.058Z,21.68
2023-05-17T09:39:15.981Z,21.67
2023-05-17T09:41:48.405Z,21.64
2023-05-17T09:44:17.222Z,21.58
2023-05-17T09:46:48.083Z,21.50
2023-05-17T09:49:17.947Z,21.47
2023-05-17T09:51:49.033Z,21.49
2023-05-17T09:54:20.758Z,21.51
2023-05-17T09:56:55.750Z,21.52
2023-05-17T09:59:28.514Z,21.49
2023-05-17T10:01:58.199Z,21.35
2023-05-17T10:04:34.616Z,21.34
2023-05-17T10:07:04.137Z,21.32
2023-05-17T10:09:35.192Z,21.32
2023-05-17T10:12:06.212Z,21.34
2023-05-17T10:14:37.007Z,21.32
2023-05-17T10:17:06.865Z,21.27
2023-05-17T10:19:35.945Z,21.25
2023-05-17T10:22:21.820Z,21.19
2023-05-17T10:24:52.391Z,21.24
2023-05-17T10:27:21.722Z,21.28
2023-05-17T10:29:50.907Z,21.32
2023-05-17T10:32:23.606Z,21.38
2023-05-17T10:35:02.201Z,21.42
2023-05-17T10:37:39.392Z,21.43
2023-05-17T10:40:15.329Z,21.46
2023-05-17T10:42:51.176Z,21.50
2023-05-17T10:45:25.435Z,21.52
2023-05-17T10:47:54.342Z,21.49
2023-05-17T10:50:27.220Z,21.48
2023-05-17T10:52:59.912Z,21.49
2023-05-17T10:55:46.497Z,21.45
2023-05-17T10:58:21.041Z,21.40
2023-05-17T11:00:56.499Z,21.33
2023-05-17T11:03:29.217Z,21.27
2023-05-17T11:06:19.374Z,21.29
2023-05-17T11:09:32.499Z,21.26
2023-05-17T11:12:05.567Z,21.23
2023-05-17T11:14:45.871Z,21.19
2023-05-17T11:17:36.959Z,21.20
2023-05-17T11:20:12.333Z,21.25
2023-05-17T11:22:59.204Z,21.31
2023-05-17T11:25:37.887Z,21.44
2023-05-17T11:28:35.712Z,21.49
2023-05-17T11:31:03.826Z,21.53
2023-05-17T11:33:48.123Z,21.60
2023-05-17T11:36:20.627Z,21.72
2023-05-17T11:38:55.207Z,21.77
2023-05-17T11:41:30.033Z,21.69
2023-05-17T11:43:59.253Z,21.69
2023-05-17T11:46:28.071Z,21.68
2023-05-17T11:48:57.511Z,21.63
2023-05-17T11:51:26.013Z,21.57
2023-05-17T11:53:55.589Z,21.41
2023-05-17T11:56:32.436Z,21.29
2023-05-17T11:59:11.200Z,21.19
2023-05-17T12:01:44.530Z,21.04
2023-05-17T12:04:13.180Z,20.97
2023-05-17T12:06:42.760Z,20.87
2023-05-17T12:09:13.594Z,20.83
2023-05-17T12:11:42.688Z,20.75
2023-05-17T12:14:15.120Z,20.71
2023-05-17T12:16:45.053Z,20.68
2023-05-17T12:19:26.227Z,20.65
2023-05-17T12:21:54.446Z,20.64
2023-05-17T12:24:22.580Z,20.54
2023-05-17T12:26:50.870Z,20.47
2023-05-17T12:29:22.203Z,20.42
2023-05-17T12:31:53.334Z,20.36
2023-05-17T12:34:22.466Z,20.33
2023-05-17T12:36:52.758Z,20.31
2023-05-17T12:39:24.421Z,20.31
2023-05-17T12:41:53.683Z,20.32
2023-05-17T12:44:21.980Z,20.26
2023-05-17T12:46:54.217Z,20.22
2023-05-17T12:49:22.727Z,20.19
2023-05-17T12:51:51.133Z,20.15
2023-05-17T12:54:29.024Z,20.09
2023-05-17T12:56:57.635Z,20.05
2023-05-17T12:59:26.384Z,20.05
2023-05-17T13:01:56.776Z,20.02
2023-05-17T13:04:33.373Z,20.03
2023-05-17T13:07:03.760Z,20.00
2023-05-17T13:09:34.626Z,20.00
2023-05-17T13:12:07.409Z,19.98
2023-05-17T13:14:37.751Z,19.95
2023-05-17T13:17:08.203Z,19.94
2023-05-17T13:19:36.909Z,19.93
2023-05-17T13:22:06.715Z,19.92
2023-05-17T13:24:36.346Z,19.86
2023-05-17T13:27:05.906Z,19.89
2023-05-17T13:29:40.058Z,19.92
2023-05-17T13:32:14.070Z,19.90
2023-05-17T13:34:42.268Z,19.92
2023-05-17T13:37:12.532Z,19.95
2023-05-17T13:39:41.902Z,19.94
2023-05-17T13:42:13.781Z,19.93
2023-05-17T13:44:42.093Z,19.97
2023-05-17T13:47:10.095Z,19.99
2023-05-17T13:49:38.248Z,19.98
2023-05-17T13:52:09.121Z,20.00
2023-05-17T13:54:38.363Z,20.03
2023-05-17T13:57:07.975Z,20.03
2023-05-17T13:59:36.721Z,20.01
2023-05-17T14:02:04.832Z,20.01
2023-05-17T14:04:33.559Z,20.04
2023-05-17T14:07:03.577Z,20.01
2023-05-17T14:09:34.006Z,20.00
2023-05-17T14:12:02.557Z,20.00
2023-05-17T14:14:31.157Z,19.98
2023-05-17T14:16:59.421Z,19.96
2023-05-17T14:19:27.762Z,19.91
2023-05-17T14:21:56.215Z,19.88
2023-05-17T14:24:24.233Z,19.86
2023-05-17T14:26:52.354Z,19.81
2023-05-17T14:29:20.676Z,19.83
2023-05-17T14:31:48.692Z,19.82
2023-05-17T14:34:16.952Z,19.79
2023-05-17T14:36:45.040Z,19.77
2023-05-17T14:39:13.466Z,19.71
2023-05-17T14:41:43.410Z,19.65
2023-05-17T14:44:13.307Z,19.65
2023-05-17T14:46:41.426Z,19.62
2023-05-17T14:49:09.823Z,19.57
2023-05-17T14:51:38.167Z,19.57
2023-05-17T14:54:06.222Z,19.50
2023-05-17T14:56:34.611Z,19.48
2023-05-17T14:59:03.345Z,19.44
2023-05-17T15:01:31.554Z,19.43
2023-05-17T15:03:59.761Z,19.40
2023-05-17T15:06:28.095Z,19.37
2023-05-17T15:08:56.315Z,19.37
2023-05-17T15:11:24.434Z,19.38
2023-05-17T15:13:53.050Z,19.33
2023-05-17T15:16:21.411Z,19.29
2023-05-17T15:18:49.770Z,19.26
2023-05-17T15:21:19.202Z,19.25
2023-05-17T15:23:48.644Z,19.20
2023-05-17T15:26:17.271Z,19.16
2023-05-17T15:28:45.605Z,19.12
2023-05-17T15:31:13.607Z,19.11
2023-05-17T15:33:43.491Z,19.07
2023-05-17T15:36:13.268Z,18.98
2023-05-17T15:38:41.486Z,18.93
2023-05-17T15:41:14.407Z,18.90
2023-05-17T15:43:43.040Z,18.88
2023-05-17T15:46:12.025Z,18.84
2023-05-17T15:48:40.253Z,18.79
2023-05-17T15:51:08.400Z,18.76
2023-05-17T15:53:36.524Z,18.72
2023-05-17T15:56:05.252Z,18.68
2023-05-17T15:58:33.695Z,18.66
2023-05-17T16:01:06.439Z,18.66
2023-05-17T16:03:35.091Z,18.62
2023-05-17T16:06:04.622Z,18.61
2023-05-17T16:08:32.966Z,18.55
2023-05-17T16:11:02.546Z,18.52
2023-05-17T16:13:31.526Z,18.47
2023-05-17T16:16:00.385Z,18.36
2023-05-17T16:18:29.503Z,18.32
2023-05-17T16:20:59.777Z,18.26
2023-05-17T16:23:28.314Z,18.23
2023-05-17T16:25:56.831Z,18.20
2023-05-17T16:28:25.167Z,18.18
2023-05-17T16:30:53.405Z,18.13
2023-05-17T16:33:21.844Z,18.04
2023-05-17T16:35:50.528Z,18.00
2023-05-17T16:38:18.736Z,17.93
2023-05-17T16:40:47.161Z,17.87
2023-05-17T16:43:16.139Z,17.83
2023-05-17T16:45:45.229Z,17.79
2023-05-17T16:48:14.781Z,17.75
2023-05-17T16:50:43.258Z,17.73
2023-05-17T16:53:11.271Z,17.71
2023-05-17T16:55:39.391Z,17.69
2023-05-17T16:58:07.726Z,17.65
2023-05-17T17:00:35.931Z,17.58
2023-05-17T17:03:06.452Z,17.50
2023-05-17T17:05:36.787Z,17.44
2023-05-17T17:08:04.907Z,17.40
2023-05-17T17:10:33.130Z,17.35
2023-05-17T17:13:01.858Z,17.31
2023-05-17T17:15:30.670Z,17.27
2023-05-17T17:17:58.809Z,17.23
2023-05-17T17:20:27.327Z,17.18
2023-05-17T17:22:56.229Z,17.12
2023-05-17T17:25:24.952Z,17.06
2023-05-17T17:27:53.456Z,17.00
2023-05-17T17:30:21.898Z,16.95
2023-05-17T17:32:50.170Z,16.93
2023-05-17T17:35:18.439Z,16.92
2023-05-17T17:37:46.661Z,16.91
2023-05-17T17:40:14.792Z,16.88
2023-05-17T17:42:43.010Z,16.83
2023-05-17T17:45:11.828Z,16.79
2023-05-17T17:47:40.077Z,16.72
2023-05-17T17:50:08.978Z,16.67
2023-05-17T17:52:37.643Z,16.63
2023-05-17T17:55:07.135Z,16.60
2023-05-17T17:57:35.438Z,16.58
2023-05-17T18:00:04.456Z,16.58
2023-05-17T18:02:33.340Z,16.58
2023-05-17T18:05:01.754Z,16.55
2023-05-17T18:07:31.329Z,16.52
2023-05-17T18:09:59.448Z,16.48
2023-05-17T18:12:28.181Z,16.46
2023-05-17T18:14:56.617Z,16.45
2023-05-17T18:17:24.945Z,16.44
2023-05-17T18:19:53.439Z,16.44
2023-05-17T18:22:21.656Z,16.45
2023-05-17T18:24:51.886Z,16.44
2023-05-17T18:27:20.404Z,16.40
2023-05-17T18:29:48.536Z,16.35
2023-05-17T18:32:17.066Z,16.30
2023-05-17T18:34:45.363Z,16.26
2023-05-17T18:37:13.481Z,16.24
2023-05-17T18:39:41.608Z,16.24
2023-05-17T18:42:09.730Z,16.22
2023-05-17T18:44:37.946Z,16.22
2023-05-17T18:47:06.933Z,16.21
2023-05-17T18:49:36.693Z,16.19
2023-05-17T18:52:05.613Z,16.17
2023-05-17T18:54:33.936Z,16.15
2023-05-17T18:57:02.064Z,16.12
2023-05-17T18:59:30.190Z,16.11
2023-05-17T19:01:58.494Z,16.11
2023-05-17T19:04:27.179Z,16.12
2023-05-17T19:06:56.440Z,16.11
2023-05-17T19:09:24.562Z,16.06
2023-05-17T19:11:52.684Z,16.04
2023-05-17T19:14:21.300Z,16.00
2023-05-17T19:16:51.351Z,15.95
2023-05-17T19:19:22.355Z,15.92
2023-05-17T19:21:50.877Z,15.89
2023-05-17T19:24:19.011Z,15.87
2023-05-17T19:26:47.121Z,15.84
2023-05-17T19:29:15.254Z,15.82
2023-05-17T19:31:43.533Z,15.81
2023-05-17T19:34:11.789Z,15.78
2023-05-17T19:36:39.906Z,15.73
2023-05-17T19:39:08.127Z,15.68
2023-05-17T19:41:36.241Z,15.67
2023-05-17T19:44:04.481Z,15.68
2023-05-17T19:46:32.700Z,15.65
2023-05-17T19:49:00.730Z,15.62
2023-05-17T19:51:28.825Z,15.60
2023-05-17T19:53:58.167Z,15.60
2023-05-17T19:56:26.590Z,15.60
2023-05-17T19:58:54.895Z,15.59
2023-05-17T20:01:23.115Z,15.55
2023-05-17T20:03:51.517Z,15.49
2023-05-17T20:06:19.854Z,15.47
2023-05-17T20:08:47.981Z,15.47
2023-05-17T20:11:16.701Z,15.49
2023-05-17T20:13:44.863Z,15.51
2023-05-17T20:16:13.456Z,15.51
2023-05-17T20:18:43.951Z,15.50
2023-05-17T20:21:15.982Z,15.48
2023-05-17T20:23:44.313Z,15.45
2023-05-17T20:26:17.103Z,15.40
2023-05-17T20:28:46.522Z,15.38
2023-05-17T20:31:15.313Z,15.35
2023-05-17T20:33:44.556Z,15.33
2023-05-17T20:36:14.624Z,15.33
2023-05-17T20:38:43.372Z,15.33
2023-05-17T20:41:14.894Z,15.33
2023-05-17T20:43:46.934Z,15.32
2023-05-17T20:46:16.050Z,15.30
2023-05-17T20:48:47.904Z,15.26
2023-05-17T20:51:18.188Z,15.21
2023-05-17T20:53:46.770Z,15.17
2023-05-17T20:56:15.087Z,15.13
2023-05-17T20:58:43.314Z,15.11
2023-05-17T21:01:11.895Z,15.11
2023-05-17T21:03:40.413Z,15.11
2023-05-17T21:06:08.863Z,15.10
2023-05-17T21:08:37.168Z,15.07
2023-05-17T21:11:05.290Z,15.04
2023-05-17T21:13:33.415Z,15.01
2023-05-17T21:16:01.543Z,14.98
2023-05-17T21:18:29.749Z,14.96
2023-05-17T21:20:57.962Z,14.93
2023-05-17T21:23:26.086Z,14.88
2023-05-17T21:25:54.206Z,14.85
2023-05-17T21:28:22.432Z,14.83
2023-05-17T21:30:54.971Z,14.82
2023-05-17T21:33:23.086Z,14.82
2023-05-17T21:35:51.597Z,14.80
2023-05-17T21:38:19.929Z,14.76
2023-05-17T21:40:48.047Z,14.72
2023-05-17T21:43:16.165Z,14.68
2023-05-17T21:45:44.593Z,14.66
2023-05-17T21:48:12.858Z,14.62
2023-05-17T21:50:41.226Z,14.58
2023-05-17T21:53:09.358Z,14.54
2023-05-17T21:55:51.376Z,14.55
2023-05-17T21:58:25.658Z,14.57
2023-05-17T22:00:54.097Z,14.55
2023-05-17T22:03:22.536Z,14.54
2023-05-17T22:05:51.323Z,14.52
2023-05-17T22:08:19.450Z,14.51
2023-05-17T22:10:47.861Z,14.50
2023-05-17T22:13:18.432Z,14.48
2023-05-17T22:15:46.731Z,14.50
2023-05-17T22:18:15.472Z,14.52
2023-05-17T22:20:44.054Z,14.57
2023-05-17T22:23:12.094Z,14.60
2023-05-17T22:25:40.207Z,14.56
2023-05-17T22:28:08.309Z,14.42
2023-05-17T22:30:36.736Z,14.24
2023-05-17T22:33:04.893Z,14.03
2023-05-17T22:35:33.183Z,13.86
2023-05-17T22:38:01.408Z,13.74
2023-05-17T22:40:29.978Z,13.69
2023-05-17T22:42:59.248Z,13.62
2023-05-17T22:45:33.237Z,13.61
2023-05-17T22:48:03.101Z,13.62
2023-05-17T22:50:32.284Z,13.60
2023-05-17T22:53:01.418Z,13.59
2023-05-17T22:55:30.071Z,13.55
2023-05-17T22:57:58.499Z,13.47
2023-05-17T23:00:26.719Z,13.40
2023-05-17T23:02:54.879Z,13.36
2023-05-17T23:05:23.471Z,13.35
2023-05-17T23:07:51.584Z,13.32
2023-05-17T23:10:19.901Z,13.26
2023-05-17T23:12:49.282Z,13.22
2023-05-17T23:15:18.954Z,13.16
2023-05-17T23:17:47.520Z,13.15
2023-05-17T23:20:15.800Z,13.16
2023-05-17T23:22:44.115Z,13.15
2023-05-17T23:25:12.236Z,13.15
2023-05-17T23:27:40.471Z,13.13
2023-05-17T23:30:09.180Z,13.10
2023-05-17T23:32:37.304Z,13.06
2023-05-17T23:35:05.924Z,13.06
2023-05-17T23:37:34.366Z,13.06
2023-05-17T23:40:04.757Z,13.05
2023-05-17T23:42:33.090Z,13.05
2023-05-17T23:45:02.114Z,13.03
2023-05-17T23:47:33.721Z,13.02
2023-05-17T23:50:03.508Z,13.00
2023-05-17T23:52:32.901Z,12.98
2023-05-17T23:55:01.811Z,12.99
2023-05-17T23:57:30.049Z,13.00
2023-05-17T23:59:58.156Z,13.02
